createdAt,value
2018-07-06T00:00:01.601Z,5.43
2018-07-06T00:02:41.469Z,4.80
2018-07-06T00:05:21.074Z,5.30
2018-07-06T00:08:00.609Z,5.43
2018-07-06T00:10:40.417Z,5.07
2018-07-06T00:13:20.230Z,5.90
2018-07-06T00:15:59.702Z,6.90
2018-07-06T00:18:39.315Z,7.07
2018-07-06T00:21:18.985Z,6.80
2018-07-06T00:23:58.645Z,6.80
2018-07-06T00:26:38.417Z,14.27
2018-07-06T00:29:18.122Z,8.70
2018-07-06T00:31:57.781Z,8.60
2018-07-06T00:34:37.354Z,9.40
2018-07-06T00:37:16.855Z,9.10
2018-07-06T00:39:56.514Z,8.93
2018-07-06T00:42:36.170Z,9.00
2018-07-06T00:45:15.775Z,8.53
2018-07-06T00:47:55.338Z,9.43
2018-07-06T00:50:35.188Z,10.53
2018-07-06T00:53:14.859Z,8.53
2018-07-06T00:55:54.586Z,8.27
2018-07-06T00:58:34.179Z,10.60
2018-07-06T01:01:13.917Z,9.80
2018-07-06T01:03:53.619Z,9.50
2018-07-06T01:06:33.334Z,15.00
2018-07-06T01:09:12.806Z,9.77
2018-07-06T01:11:52.429Z,10.10
2018-07-06T01:14:32.065Z,9.80
2018-07-06T01:17:15.910Z,9.13
2018-07-06T01:19:56.267Z,11.03
2018-07-06T01:22:35.822Z,9.07
2018-07-06T01:25:15.478Z,7.87
2018-07-06T01:27:55.008Z,7.93
2018-07-06T01:30:34.552Z,7.60
2018-07-06T01:33:14.597Z,7.40
2018-07-06T01:35:54.396Z,7.53
2018-07-06T01:38:33.969Z,6.30
2018-07-06T01:41:13.734Z,6.87
2018-07-06T01:43:53.285Z,6.33
2018-07-06T01:46:33.025Z,6.53
2018-07-06T01:49:12.569Z,7.87
2018-07-06T01:51:52.506Z,6.83
2018-07-06T01:54:32.249Z,6.00
2018-07-06T01:57:12.023Z,6.00
2018-07-06T01:59:51.719Z,6.00
2018-07-06T02:02:31.311Z,5.43
2018-07-06T02:05:10.806Z,5.27
2018-07-06T02:07:44.396Z,5.80
2018-07-06T02:10:24.050Z,5.13
2018-07-06T02:13:03.795Z,4.30
2018-07-06T02:15:43.372Z,4.20
2018-07-06T02:18:22.912Z,4.17
2018-07-06T02:21:02.569Z,3.20
2018-07-06T02:23:42.297Z,4.37
2018-07-06T02:26:22.042Z,3.10
2018-07-06T02:29:01.735Z,3.80
2018-07-06T02:31:41.272Z,3.00
2018-07-06T02:34:20.932Z,4.00
2018-07-06T02:37:00.615Z,3.50
2018-07-06T02:39:40.356Z,3.63
2018-07-06T02:42:20.106Z,4.60
2018-07-06T02:44:59.806Z,3.70
2018-07-06T02:47:39.659Z,3.80
2018-07-06T02:50:19.332Z,4.10
2018-07-06T02:52:59.042Z,4.37
2018-07-06T02:55:42.214Z,4.60
2018-07-06T02:58:22.117Z,3.97
2018-07-06T03:01:01.588Z,4.10
2018-07-06T03:03:41.536Z,4.13
2018-07-06T03:06:21.151Z,3.73
2018-07-06T03:09:00.946Z,3.37
2018-07-06T03:11:40.617Z,3.93
2018-07-06T03:14:20.241Z,4.37
2018-07-06T03:16:59.928Z,3.80
2018-07-06T03:19:39.638Z,3.50
2018-07-06T03:22:19.439Z,4.10
2018-07-06T03:24:59.109Z,3.00
2018-07-06T03:27:38.809Z,3.47
2018-07-06T03:30:18.617Z,3.90
2018-07-06T03:32:58.105Z,4.50
2018-07-06T03:35:37.919Z,4.17
2018-07-06T03:38:17.611Z,4.37
2018-07-06T03:40:57.103Z,3.97
2018-07-06T03:43:36.647Z,5.30
2018-07-06T03:46:16.291Z,4.50
2018-07-06T03:48:55.859Z,4.87
2018-07-06T03:51:35.655Z,4.50
2018-07-06T03:54:15.266Z,4.63
2018-07-06T03:56:54.946Z,3.90
2018-07-06T03:59:34.583Z,4.40
2018-07-06T04:02:14.642Z,4.47
2018-07-06T04:04:54.105Z,3.97
2018-07-06T04:07:33.773Z,3.97
2018-07-06T04:10:13.598Z,4.73
2018-07-06T04:12:53.286Z,4.00
2018-07-06T04:15:32.823Z,4.10
2018-07-06T04:18:12.418Z,4.10
2018-07-06T04:20:51.928Z,5.27
2018-07-06T04:23:31.522Z,4.67
2018-07-06T04:26:05.187Z,4.60
2018-07-06T04:28:44.887Z,5.07
2018-07-06T04:31:24.602Z,5.27
2018-07-06T04:34:04.270Z,5.60
2018-07-06T04:36:44.093Z,5.63
2018-07-06T04:39:23.601Z,6.67
2018-07-06T04:42:03.170Z,6.50
2018-07-06T04:44:42.786Z,7.20
2018-07-06T04:47:22.453Z,8.73
2018-07-06T04:50:02.095Z,7.23
2018-07-06T04:52:41.847Z,7.60
2018-07-06T04:55:21.380Z,8.20
2018-07-06T04:58:00.999Z,8.50
2018-07-06T05:00:40.856Z,10.20
2018-07-06T05:03:21.398Z,8.57
2018-07-06T05:06:00.990Z,9.07
2018-07-06T05:08:40.680Z,6.83
2018-07-06T05:11:20.227Z,7.63
2018-07-06T05:13:59.937Z,7.87
2018-07-06T05:16:33.472Z,7.20
2018-07-06T05:19:13.077Z,6.13
2018-07-06T05:21:52.698Z,5.67
2018-07-06T05:24:32.468Z,5.80
2018-07-06T05:27:12.282Z,5.90
2018-07-06T05:29:52.641Z,5.77
2018-07-06T05:32:32.325Z,5.53
2018-07-06T05:35:12.094Z,5.37
2018-07-06T05:37:51.703Z,5.10
2018-07-06T05:40:31.308Z,5.67
2018-07-06T05:43:11.018Z,5.57
2018-07-06T05:45:50.640Z,5.83
2018-07-06T05:48:24.293Z,5.10
2018-07-06T05:51:03.842Z,5.73
2018-07-06T05:53:43.409Z,7.03
2018-07-06T05:56:23.129Z,7.90
2018-07-06T05:59:02.771Z,5.30
2018-07-06T06:01:42.387Z,6.00
2018-07-06T06:04:22.433Z,5.70
2018-07-06T06:07:02.094Z,6.80
2018-07-06T06:09:30.372Z,7.27
2018-07-06T06:11:58.663Z,6.73
2018-07-06T06:14:26.894Z,6.70
2018-07-06T06:16:55.165Z,7.07
2018-07-06T06:19:23.385Z,6.90
2018-07-06T06:21:51.617Z,7.83
2018-07-06T06:24:19.837Z,7.00
2018-07-06T06:26:48.161Z,6.90
2018-07-06T06:29:16.428Z,6.23
2018-07-06T06:31:44.388Z,7.70
2018-07-06T06:34:12.646Z,7.10
2018-07-06T06:36:40.923Z,8.20
2018-07-06T06:39:14.070Z,8.23
2018-07-06T06:41:42.356Z,7.50
2018-07-06T06:44:10.676Z,8.53
2018-07-06T06:46:39.117Z,7.70
2018-07-06T06:49:07.346Z,8.23
2018-07-06T06:51:35.694Z,8.00
2018-07-06T06:54:04.014Z,9.03
2018-07-06T06:56:32.326Z,9.07
2018-07-06T06:59:01.684Z,8.27
2018-07-06T07:01:29.934Z,7.40
2018-07-06T07:03:58.481Z,7.47
2018-07-06T07:06:26.678Z,10.70
2018-07-06T07:08:55.039Z,8.60
2018-07-06T07:11:23.308Z,9.03
2018-07-06T07:13:51.579Z,8.10
2018-07-06T07:16:19.777Z,8.40
2018-07-06T07:18:48.273Z,9.60
2018-07-06T07:21:16.555Z,9.03
2018-07-06T07:23:45.555Z,8.10
2018-07-06T07:26:13.839Z,10.30
2018-07-06T07:28:42.106Z,10.73
2018-07-06T07:31:10.358Z,9.93
2018-07-06T07:33:38.555Z,11.10
2018-07-06T07:36:06.823Z,12.43
2018-07-06T07:38:35.081Z,11.80
2018-07-06T07:41:03.358Z,12.53
2018-07-06T07:43:31.613Z,12.40
2018-07-06T07:46:00.024Z,12.43
2018-07-06T07:48:28.290Z,13.17
2018-07-06T07:51:07.853Z,12.90
2018-07-06T07:53:47.534Z,12.40
2018-07-06T07:56:15.857Z,13.33
2018-07-06T07:58:44.085Z,13.10
2018-07-06T08:01:12.487Z,12.93
2018-07-06T08:03:40.699Z,11.77
2018-07-06T08:06:08.927Z,12.00
2018-07-06T08:08:37.153Z,13.60
2018-07-06T08:11:05.465Z,14.10
2018-07-06T08:13:33.735Z,14.27
2018-07-06T08:16:02.048Z,22.13
2018-07-06T08:18:30.317Z,15.47
2018-07-06T08:20:58.516Z,13.90
2018-07-06T08:23:26.775Z,14.00
2018-07-06T08:25:55.016Z,14.17
2018-07-06T08:28:23.241Z,13.57
2018-07-06T08:30:52.486Z,13.27
2018-07-06T08:33:21.534Z,13.53
2018-07-06T08:36:01.174Z,14.67
2018-07-06T08:38:29.452Z,13.90
2018-07-06T08:40:57.701Z,15.00
2018-07-06T08:43:25.906Z,15.47
2018-07-06T08:45:54.152Z,14.07
2018-07-06T08:48:22.458Z,14.87
2018-07-06T08:50:51.054Z,15.80
2018-07-06T08:53:19.315Z,15.97
2018-07-06T08:55:47.558Z,16.10
2018-07-06T08:58:15.871Z,15.20
2018-07-06T09:00:44.193Z,15.90
2018-07-06T09:03:12.463Z,17.80
2018-07-06T09:05:40.735Z,17.60
2018-07-06T09:08:09.059Z,15.43
2018-07-06T09:10:37.355Z,15.70
2018-07-06T09:13:06.561Z,14.40
2018-07-06T09:15:34.830Z,15.17
2018-07-06T09:18:03.158Z,14.77
2018-07-06T09:20:31.428Z,15.33
2018-07-06T09:23:02.680Z,15.30
2018-07-06T09:25:30.922Z,14.90
2018-07-06T09:27:59.175Z,13.23
2018-07-06T09:30:27.430Z,14.37
2018-07-06T09:32:55.687Z,15.43
2018-07-06T09:35:23.915Z,12.63
2018-07-06T09:37:52.842Z,13.57
2018-07-06T09:40:21.111Z,12.90
2018-07-06T09:42:49.388Z,14.93
2018-07-06T09:45:17.729Z,13.63
2018-07-06T09:47:45.977Z,13.33
2018-07-06T09:50:14.238Z,13.80
2018-07-06T09:52:42.493Z,12.20
2018-07-06T09:55:10.733Z,12.90
2018-07-06T09:57:38.977Z,12.57
2018-07-06T10:00:07.257Z,11.30
2018-07-06T10:02:35.519Z,12.87
2018-07-06T10:05:03.854Z,11.70
2018-07-06T10:07:32.129Z,12.43
2018-07-06T10:10:00.532Z,11.03
2018-07-06T10:12:28.855Z,12.27
2018-07-06T10:14:57.075Z,11.63
2018-07-06T10:17:25.381Z,11.47
2018-07-06T10:19:53.701Z,13.73
2018-07-06T10:22:21.889Z,10.93
2018-07-06T10:24:50.117Z,13.03
2018-07-06T10:27:18.545Z,52.07
2018-07-06T10:29:54.658Z,20.40
2018-07-06T10:32:26.396Z,12.27
2018-07-06T10:34:55.072Z,11.30
2018-07-06T10:37:23.647Z,9.97
2018-07-06T10:39:52.412Z,10.50
2018-07-06T10:42:20.572Z,10.47
2018-07-06T10:44:48.818Z,9.47
2018-07-06T10:47:17.081Z,9.90
2018-07-06T10:49:45.370Z,11.20
2018-07-06T10:52:15.248Z,10.47
2018-07-06T10:54:43.881Z,8.80
2018-07-06T10:57:12.212Z,9.57
2018-07-06T10:59:40.509Z,27.67
2018-07-06T11:02:08.812Z,10.80
2018-07-06T11:04:37.089Z,12.10
2018-07-06T11:07:05.459Z,9.43
2018-07-06T11:09:33.726Z,9.10
2018-07-06T11:12:01.998Z,9.13
2018-07-06T11:14:30.257Z,10.40
2018-07-06T11:16:58.487Z,9.83
2018-07-06T11:19:27.267Z,9.00
2018-07-06T11:21:55.531Z,8.90
2018-07-06T11:24:23.517Z,10.03
2018-07-06T11:26:51.745Z,10.10
2018-07-06T11:29:19.973Z,10.10
2018-07-06T11:31:48.212Z,9.67
2018-07-06T11:34:16.202Z,10.27
2018-07-06T11:36:44.498Z,10.50
2018-07-06T11:39:12.763Z,10.70
2018-07-06T11:41:40.983Z,9.90
2018-07-06T11:44:09.210Z,9.67
2018-07-06T11:46:38.511Z,11.67
2018-07-06T11:49:07.810Z,10.70
2018-07-06T11:51:36.201Z,12.00
2018-07-06T11:54:04.539Z,10.93
2018-07-06T11:56:32.803Z,11.60
2018-07-06T11:59:01.068Z,12.43
2018-07-06T12:01:29.262Z,12.53
2018-07-06T12:03:57.589Z,15.20
2018-07-06T12:06:25.837Z,16.50
2018-07-06T12:08:54.094Z,17.27
2018-07-06T12:11:22.658Z,12.63
2018-07-06T12:13:50.930Z,13.13
2018-07-06T12:16:19.211Z,14.00
2018-07-06T12:18:47.535Z,13.17
2018-07-06T12:21:15.851Z,13.90
2018-07-06T12:23:50.591Z,14.20
2018-07-06T12:26:18.854Z,13.17
2018-07-06T12:28:47.387Z,13.83
2018-07-06T12:31:15.649Z,12.90
2018-07-06T12:33:44.004Z,14.17
2018-07-06T12:36:12.215Z,14.80
2018-07-06T12:38:40.641Z,13.90
2018-07-06T12:41:08.890Z,14.67
2018-07-06T12:43:37.142Z,13.20
2018-07-06T12:46:05.391Z,14.77
2018-07-06T12:48:33.688Z,15.20
2018-07-06T12:51:01.919Z,15.30
2018-07-06T12:53:30.186Z,14.13
2018-07-06T12:55:58.467Z,12.90
2018-07-06T12:58:26.818Z,13.40
2018-07-06T13:00:55.101Z,13.60
2018-07-06T13:03:23.351Z,12.83
2018-07-06T13:05:51.622Z,12.90
2018-07-06T13:08:19.901Z,13.33
2018-07-06T13:10:48.126Z,12.43
2018-07-06T13:13:16.357Z,12.53
2018-07-06T13:15:44.611Z,14.13
2018-07-06T13:18:12.870Z,13.03
2018-07-06T13:20:41.164Z,12.73
2018-07-06T13:23:09.388Z,13.80
2018-07-06T13:25:37.578Z,16.00
2018-07-06T13:28:05.592Z,13.17
2018-07-06T13:30:33.786Z,12.70
2018-07-06T13:33:02.010Z,13.17
2018-07-06T13:35:30.235Z,14.80
2018-07-06T13:37:58.448Z,12.97
2018-07-06T13:40:26.667Z,12.83
2018-07-06T13:42:54.918Z,13.10
2018-07-06T13:45:23.139Z,14.43
2018-07-06T13:47:51.211Z,13.40
2018-07-06T13:50:19.465Z,12.83
2018-07-06T13:52:47.713Z,13.20
2018-07-06T13:55:16.047Z,11.60
2018-07-06T13:57:44.319Z,12.33
2018-07-06T14:00:12.983Z,25.90
2018-07-06T14:02:41.263Z,13.47
2018-07-06T14:05:09.522Z,12.50
2018-07-06T14:07:37.807Z,11.90
2018-07-06T14:10:06.046Z,14.40
2018-07-06T14:12:34.267Z,12.30
2018-07-06T14:15:02.498Z,12.90
2018-07-06T14:17:30.742Z,10.97
2018-07-06T14:19:59.013Z,12.00
2018-07-06T14:22:27.328Z,13.07
2018-07-06T14:24:55.561Z,11.60
2018-07-06T14:27:23.790Z,5.23
2018-07-06T14:29:52.069Z,3.50
2018-07-06T14:32:20.414Z,3.23
2018-07-06T14:34:48.776Z,3.00
2018-07-06T14:37:16.966Z,3.40
2018-07-06T14:39:45.225Z,3.37
2018-07-06T14:42:13.514Z,2.80
2018-07-06T14:44:41.755Z,3.00
2018-07-06T14:47:10.068Z,2.00
2018-07-06T14:49:38.253Z,2.40
2018-07-06T14:52:06.688Z,2.80
2018-07-06T14:54:34.923Z,3.10
2018-07-06T14:57:03.144Z,3.33
2018-07-06T14:59:31.553Z,3.27
2018-07-06T15:01:59.838Z,3.60
2018-07-06T15:04:28.268Z,3.50
2018-07-06T15:06:56.488Z,3.27
2018-07-06T15:09:24.717Z,3.33
2018-07-06T15:11:53.395Z,2.97
2018-07-06T15:14:22.054Z,2.93
2018-07-06T15:16:50.230Z,2.70
2018-07-06T15:19:18.434Z,4.60
2018-07-06T15:21:46.435Z,4.47
2018-07-06T15:24:14.671Z,8.63
2018-07-06T15:26:42.896Z,3.50
2018-07-06T15:29:11.118Z,3.47
2018-07-06T15:31:39.347Z,3.83
2018-07-06T15:34:07.557Z,3.67
2018-07-06T15:39:10.510Z,4.03
2018-07-06T15:41:38.715Z,3.87
2018-07-06T15:44:06.929Z,4.30
2018-07-06T15:46:35.152Z,4.80
2018-07-06T15:49:03.423Z,5.23
2018-07-06T15:51:31.654Z,5.60
2018-07-06T15:54:00.015Z,7.43
2018-07-06T15:56:28.207Z,7.63
2018-07-06T15:58:56.466Z,8.37
2018-07-06T16:01:24.659Z,9.10
2018-07-06T16:03:52.976Z,11.73
2018-07-06T16:06:20.944Z,9.33
2018-07-06T16:08:49.177Z,12.00
2018-07-06T16:11:17.439Z,12.57
2018-07-06T16:13:45.738Z,12.43
2018-07-06T16:16:14.030Z,11.80
2018-07-06T16:18:42.254Z,12.80
2018-07-06T16:21:10.519Z,13.10
2018-07-06T16:23:38.810Z,13.73
2018-07-06T16:26:07.114Z,12.50
2018-07-06T16:28:35.383Z,18.03
2018-07-06T16:31:03.675Z,14.30
2018-07-06T16:33:31.941Z,15.03
2018-07-06T16:36:00.215Z,14.70
2018-07-06T16:38:28.453Z,13.87
2018-07-06T16:40:56.766Z,12.87
2018-07-06T16:43:25.017Z,13.43
2018-07-06T16:45:53.264Z,12.97
2018-07-06T16:48:22.106Z,12.10
2018-07-06T16:50:50.398Z,12.90
2018-07-06T16:53:18.735Z,13.27
2018-07-06T16:55:47.049Z,13.70
2018-07-06T16:58:15.318Z,14.80
2018-07-06T17:00:43.593Z,12.83
2018-07-06T17:03:11.870Z,14.80
2018-07-06T17:05:40.141Z,12.97
2018-07-06T17:08:08.414Z,13.90
2018-07-06T17:10:36.658Z,12.70
2018-07-06T17:13:04.866Z,11.60
2018-07-06T17:15:33.139Z,13.20
2018-07-06T17:18:02.238Z,12.10
2018-07-06T17:20:30.517Z,13.00
2018-07-06T17:22:58.701Z,12.10
2018-07-06T17:25:26.953Z,11.80
2018-07-06T17:27:55.318Z,10.77
2018-07-06T17:30:23.514Z,12.30
2018-07-06T17:32:51.745Z,11.07
2018-07-06T17:35:20.039Z,10.90
2018-07-06T17:37:49.833Z,12.20
2018-07-06T17:40:18.159Z,11.17
2018-07-06T17:42:46.427Z,9.40
2018-07-06T17:45:14.815Z,11.50
2018-07-06T17:47:43.088Z,11.30
2018-07-06T17:50:11.523Z,10.30
2018-07-06T17:52:39.752Z,9.97
2018-07-06T17:55:08.073Z,9.60
2018-07-06T17:57:36.376Z,10.27
2018-07-06T18:00:04.748Z,9.53
2018-07-06T18:02:33.027Z,9.40
2018-07-06T18:05:01.308Z,9.60
2018-07-06T18:07:29.680Z,10.73
2018-07-06T18:09:57.859Z,9.83
2018-07-06T18:12:26.207Z,8.73
2018-07-06T18:14:54.477Z,8.97
2018-07-06T18:17:22.704Z,8.47
2018-07-06T18:19:51.048Z,11.43
2018-07-06T18:22:19.420Z,8.50
2018-07-06T18:24:47.961Z,10.10
2018-07-06T18:27:16.510Z,8.40
2018-07-06T18:29:44.818Z,7.47
2018-07-06T18:32:13.534Z,7.80
2018-07-06T18:34:41.737Z,7.43
2018-07-06T18:37:09.996Z,7.70
2018-07-06T18:39:38.274Z,7.63
2018-07-06T18:42:06.492Z,7.03
2018-07-06T18:44:34.732Z,8.10
2018-07-06T18:47:03.090Z,8.40
2018-07-06T18:49:31.310Z,8.10
2018-07-06T18:51:59.586Z,7.97
2018-07-06T18:54:28.541Z,6.80
2018-07-06T18:56:56.837Z,7.17
2018-07-06T18:59:25.136Z,8.40
2018-07-06T19:01:53.488Z,7.37
2018-07-06T19:04:21.895Z,7.07
2018-07-06T19:06:50.794Z,7.10
2018-07-06T19:09:19.703Z,7.10
2018-07-06T19:11:48.019Z,7.20
2018-07-06T19:14:16.272Z,8.30
2018-07-06T19:16:44.583Z,7.90
2018-07-06T19:19:12.945Z,7.80
2018-07-06T19:21:41.362Z,8.70
2018-07-06T19:24:10.159Z,10.07
2018-07-06T19:26:38.601Z,11.00
2018-07-06T19:29:06.915Z,12.77
2018-07-06T19:31:35.184Z,13.10
2018-07-06T19:34:04.427Z,13.23
2018-07-06T19:36:32.415Z,14.30
2018-07-06T19:39:01.828Z,15.30
2018-07-06T19:41:30.212Z,14.67
2018-07-06T19:43:58.549Z,15.53
2018-07-06T19:46:27.878Z,16.07
2018-07-06T19:48:56.569Z,15.93
2018-07-06T19:51:24.873Z,15.90
2018-07-06T19:53:53.135Z,14.73
2018-07-06T19:56:21.424Z,15.87
2018-07-06T19:58:49.670Z,16.10
2018-07-06T20:01:18.062Z,17.27
2018-07-06T20:03:46.308Z,15.57
2018-07-06T20:06:14.621Z,16.10
2018-07-06T20:08:42.992Z,17.30
2018-07-06T20:11:11.470Z,15.77
2018-07-06T20:13:39.923Z,15.37
2018-07-06T20:16:08.243Z,15.40
2018-07-06T20:18:36.507Z,15.70
2018-07-06T20:21:04.774Z,15.60
2018-07-06T20:23:33.098Z,15.07
2018-07-06T20:26:01.942Z,14.90
2018-07-06T20:28:30.326Z,15.10
2018-07-06T20:30:58.565Z,15.30
2018-07-06T20:33:26.854Z,14.83
2018-07-06T20:35:55.085Z,14.37
2018-07-06T20:38:23.353Z,14.17
2018-07-06T20:40:51.632Z,13.97
2018-07-06T20:43:19.965Z,14.33
2018-07-06T20:45:48.230Z,13.07
2018-07-06T20:48:16.512Z,12.73
2018-07-06T20:50:44.770Z,12.70
2018-07-06T20:53:13.089Z,12.30
2018-07-06T20:55:41.374Z,12.80
2018-07-06T20:58:09.760Z,13.40
2018-07-06T21:00:38.036Z,13.33
2018-07-06T21:03:06.359Z,11.33
2018-07-06T21:05:34.591Z,11.67
2018-07-06T21:08:02.940Z,12.97
2018-07-06T21:10:31.289Z,12.30
2018-07-06T21:12:59.531Z,12.47
2018-07-06T21:15:27.823Z,13.30
2018-07-06T21:17:56.254Z,12.17
2018-07-06T21:20:24.573Z,12.90
2018-07-06T21:22:52.902Z,12.73
2018-07-06T21:25:21.744Z,11.57
2018-07-06T21:27:50.057Z,12.30
2018-07-06T21:30:18.284Z,12.30
2018-07-06T21:32:46.503Z,11.83
2018-07-06T21:35:14.775Z,11.80
2018-07-06T21:37:43.064Z,11.50
2018-07-06T21:40:11.281Z,11.60
2018-07-06T21:42:39.550Z,12.77
2018-07-06T21:45:07.932Z,10.97
2018-07-06T21:47:36.206Z,11.30
2018-07-06T21:50:04.499Z,10.67
2018-07-06T21:52:32.749Z,12.00
2018-07-06T21:55:01.031Z,10.53
2018-07-06T21:57:29.309Z,10.47
2018-07-06T21:59:57.575Z,10.40
2018-07-06T22:02:25.861Z,10.13
2018-07-06T22:04:54.159Z,10.50
2018-07-06T22:07:22.424Z,10.67
2018-07-06T22:09:50.699Z,12.00
2018-07-06T22:12:18.960Z,9.23
2018-07-06T22:14:47.231Z,9.30
2018-07-06T22:17:15.555Z,10.63
2018-07-06T22:19:43.806Z,9.53
2018-07-06T22:22:12.161Z,10.57
2018-07-06T22:24:40.466Z,9.00
2018-07-06T22:27:08.742Z,9.23
2018-07-06T22:29:37.006Z,8.73
2018-07-06T22:32:05.282Z,8.17
2018-07-06T22:34:33.622Z,8.60
2018-07-06T22:37:01.855Z,8.53
2018-07-06T22:39:30.350Z,7.93
2018-07-06T22:41:58.538Z,13.50
2018-07-06T22:44:26.766Z,7.50
2018-07-06T22:46:55.054Z,6.80
2018-07-06T22:49:23.338Z,6.10
2018-07-06T22:51:51.631Z,7.03
2018-07-06T22:54:19.901Z,6.97
2018-07-06T22:56:48.153Z,5.63
2018-07-06T22:59:16.395Z,6.00
2018-07-06T23:01:44.638Z,6.40
2018-07-06T23:04:13.154Z,7.03
2018-07-06T23:06:41.358Z,6.80
2018-07-06T23:09:09.622Z,6.70
2018-07-06T23:11:37.881Z,6.30
2018-07-06T23:14:06.177Z,6.17
2018-07-06T23:16:34.398Z,7.87
2018-07-06T23:19:02.667Z,7.00
2018-07-06T23:21:30.945Z,7.20
2018-07-06T23:23:59.217Z,7.33
2018-07-06T23:26:27.169Z,7.40
2018-07-06T23:28:55.431Z,7.97
2018-07-06T23:31:23.710Z,8.23
2018-07-06T23:33:51.923Z,7.30
2018-07-06T23:36:20.190Z,8.93
2018-07-06T23:38:48.421Z,7.57
2018-07-06T23:41:16.638Z,8.77
2018-07-06T23:43:44.963Z,7.63
2018-07-06T23:46:13.159Z,8.30
2018-07-06T23:48:41.392Z,8.80
2018-07-06T23:51:09.602Z,9.50
2018-07-06T23:53:37.819Z,9.23
2018-07-06T23:56:06.089Z,9.80
2018-07-06T23:58:34.321Z,9.50
